Pontotoc, Texas
Current Conditions -  °F | °C
As of 4:35 AM on Thursday 23 Oct 2014 (Local Time) from KBBD Reporting Station
Overcast Overcast  
Wind Chill: 64°   Ceiling: 5000
Heat Index: 64°   Visibility: 10mi
Dew Point: 54°   Wind: 0mph
Humidity: 68%   Direction: NA
Pressure: 30.12"   Gusts: NA
Location:  30.91°N, 98.98°W
Report Text: KBBD 230935Z AUTO 00000KT 10SM OVC050 18/12 A3012 RMK
Loading
Personal Weather Stations






























Interactive Weather Map
Tropical Storm Tracking
New forecast layout! Learn more

10-Day Weather Forecast

Advertisements
Track Severe Weather on mobile